Time;durP1;ratioP1;P1;durP2;ratioP2;P2;SDS_P1;SDS_P2;PMS_P1;PMS_P2;Temp;Humidity;BMP_temperature;BMP_pressure;BME280_temperature;BME280_humidity;BME280_pressure;Samples;Min_cycle;Max_cycle;Signal;HPM_P1;HPM_P2
2022/01/11 00:00:36;;;;;;;54.93;31.93;;;4.10;94.00;;;;;;5053685;28;20637;-88
2022/01/11 00:03:04;;;;;;;52.67;33.67;;;4.10;94.00;;;;;;5053323;28;20182;-87
2022/01/11 00:05:35;;;;;;;51.73;31.30;;;4.10;93.90;;;;;;5053284;28;20170;-87
2022/01/11 00:08:02;;;;;;;47.17;31.47;;;4.10;93.90;;;;;;5053231;28;20619;-88
2022/01/11 00:10:29;;;;;;;49.03;30.90;;;4.10;93.80;;;;;;5051955;28;20265;-87
2022/01/11 00:12:56;;;;;;;48.67;30.33;;;4.10;93.90;;;;;;5053207;28;20249;-87
2022/01/11 00:15:23;;;;;;;49.90;31.87;;;4.10;93.80;;;;;;5056442;28;20188;-87
2022/01/11 00:17:49;;;;;;;53.63;32.37;;;4.10;93.80;;;;;;5055757;28;20317;-87
2022/01/11 00:20:16;;;;;;;55.00;32.13;;;4.10;93.80;;;;;;5056019;28;20639;-87
2022/01/11 00:24:27;;;;;;;52.20;33.47;;;4.10;93.80;;;;;;5057031;28;20167;-87
2022/01/11 00:25:31;;;;;;;56.07;32.23;;;4.10;93.80;;;;;;5057137;28;20224;-86
2022/01/11 00:27:58;;;;;;;53.33;32.13;;;4.10;93.80;;;;;;5055572;28;20241;-87
2022/01/11 00:30:30;;;;;;;51.60;30.87;;;4.10;93.80;;;;;;5039245;28;20277;-87
2022/01/11 00:32:58;;;;;;;48.67;30.30;;;4.10;93.90;;;;;;5055704;28;20177;-87
2022/01/11 00:35:28;;;;;;;57.17;30.50;;;4.10;93.90;;;;;;5055332;28;20186;-86
2022/01/11 00:37:56;;;;;;;55.63;31.43;;;4.10;93.90;;;;;;5055586;28;20199;-87
2022/01/11 00:40:22;;;;;;;59.43;33.03;;;4.00;93.90;;;;;;5055401;28;20174;-87
2022/01/11 00:42:48;;;;;;;63.10;32.77;;;4.10;93.90;;;;;;5055364;28;20190;-87
2022/01/11 00:45:14;;;;;;;60.53;32.33;;;4.00;94.00;;;;;;5056487;28;20175;-86
2022/01/11 00:47:41;;;;;;;54.67;31.33;;;4.10;94.00;;;;;;5056439;28;20207;-87
2022/01/11 00:50:08;;;;;;;59.33;30.10;;;4.10;94.00;;;;;;5056711;28;20182;-87
2022/01/11 00:52:34;;;;;;;67.80;33.37;;;4.00;94.10;;;;;;5055828;28;20529;-87
2022/01/11 00:55:00;;;;;;;72.50;31.83;;;4.00;94.10;;;;;;5056703;28;20172;-86
2022/01/11 00:57:26;;;;;;;62.43;31.80;;;4.00;94.20;;;;;;5056237;28;20715;-89
2022/01/11 00:59:52;;;;;;;63.60;32.47;;;4.10;94.20;;;;;;5056581;28;20580;-86
2022/01/11 01:02:18;;;;;;;65.73;31.30;;;4.10;94.20;;;;;;5054883;28;20225;-86
2022/01/11 01:04:45;;;;;;;65.60;31.43;;;4.10;94.20;;;;;;5056176;28;20630;-87
2022/01/11 01:07:11;;;;;;;58.90;31.67;;;4.20;94.20;;;;;;5055087;28;20198;-87
2022/01/11 01:10:00;;;;;;;53.00;28.67;;;4.20;94.20;;;;;;5054961;28;20182;-86
2022/01/11 01:12:26;;;;;;;55.47;28.90;;;4.20;94.20;;;;;;5054836;28;20266;-86
2022/01/11 01:14:51;;;;;;;62.67;30.80;;;4.20;94.20;;;;;;5056145;28;20268;-87
2022/01/11 01:17:17;;;;;;;54.27;27.97;;;4.20;94.20;;;;;;5055207;28;20218;-87
2022/01/11 01:19:43;;;;;;;61.20;30.57;;;4.20;94.20;;;;;;5054749;28;20182;-86
2022/01/11 01:22:08;;;;;;;58.03;29.30;;;4.20;94.20;;;;;;5054806;28;20169;-86
2022/01/11 01:24:34;;;;;;;56.67;29.67;;;4.20;94.10;;;;;;5056392;28;20662;-87
2022/01/11 01:27:00;;;;;;;66.67;32.33;;;4.20;94.20;;;;;;5055022;28;20195;-87
2022/01/11 01:29:26;;;;;;;59.87;28.87;;;4.20;94.10;;;;;;5054795;28;20682;-87
2022/01/11 01:31:51;;;;;;;54.20;29.33;;;4.20;94.10;;;;;;5054796;28;20592;-88
2022/01/11 01:34:17;;;;;;;65.37;30.03;;;4.20;94.20;;;;;;5054564;28;20182;-87
2022/01/11 01:36:43;;;;;;;63.47;29.57;;;4.20;94.20;;;;;;5054618;28;20218;-87
2022/01/11 01:39:09;;;;;;;53.17;28.50;;;4.20;94.20;;;;;;5055689;28;20185;-87
2022/01/11 01:41:35;;;;;;;61.53;30.03;;;4.20;94.20;;;;;;5054469;28;20183;-87
2022/01/11 01:44:03;;;;;;;61.17;29.33;;;4.20;94.20;;;;;;5054239;28;20185;-89
2022/01/11 01:46:29;;;;;;;65.57;30.47;;;4.20;94.20;;;;;;5054182;28;20209;-87
2022/01/11 01:48:58;;;;;;;60.43;29.70;;;4.20;94.20;;;;;;5054852;28;20177;-87
2022/01/11 01:51:24;;;;;;;59.07;28.37;;;4.20;94.20;;;;;;5054223;28;20220;-86
2022/01/11 01:53:51;;;;;;;57.67;29.27;;;4.20;94.20;;;;;;5055379;28;20247;-87
2022/01/11 01:56:19;;;;;;;60.03;31.10;;;4.20;94.20;;;;;;5055260;28;20571;-87
2022/01/11 01:58:44;;;;;;;57.57;28.63;;;4.20;94.20;;;;;;5054089;28;20188;-86
2022/01/11 02:01:13;;;;;;;56.90;28.00;;;4.20;94.20;;;;;;5055334;28;20270;-87
2022/01/11 02:03:40;;;;;;;64.83;31.10;;;4.20;94.20;;;;;;5053908;28;20604;-87
2022/01/11 02:06:17;;;;;;;68.83;31.00;;;4.20;94.20;;;;;;5055469;28;20175;-87
2022/01/11 02:08:48;;;;;;;59.67;29.57;;;4.20;94.20;;;;;;5055391;28;20691;-87
2022/01/11 02:11:19;;;;;;;63.87;30.53;;;4.20;94.20;;;;;;5055536;28;20183;-87
2022/01/11 02:13:46;;;;;;;67.13;30.63;;;4.20;94.30;;;;;;5055024;28;20179;-87
2022/01/11 02:16:13;;;;;;;62.87;30.93;;;4.10;94.30;;;;;;5053381;28;20201;-88
2022/01/11 02:18:40;;;;;;;60.77;31.57;;;4.10;94.30;;;;;;5053565;28;20173;-87
2022/01/11 02:21:06;;;;;;;71.67;31.27;;;4.10;94.30;;;;;;5054877;28;20223;-88
2022/01/11 02:23:32;;;;;;;65.33;31.23;;;4.10;94.40;;;;;;5054630;28;20199;-87
2022/01/11 02:25:58;;;;;;;75.23;32.97;;;4.10;94.40;;;;;;5054681;28;20617;-88
2022/01/11 02:28:26;;;;;;;79.97;34.20;;;4.10;94.50;;;;;;5054839;28;20199;-89
2022/01/11 02:30:52;;;;;;;75.77;33.77;;;4.10;94.50;;;;;;5054863;28;20193;-88
2022/01/11 02:33:46;;;;;;;78.07;33.47;;;4.10;94.50;;;;;;5053363;28;20203;-88
2022/01/11 02:36:22;;;;;;;79.43;32.63;;;4.10;94.60;;;;;;5053311;28;20230;-87
2022/01/11 02:38:50;;;;;;;67.60;25.27;;;4.00;94.60;;;;;;5054465;28;20175;-88
2022/01/11 02:41:17;;;;;;;87.13;32.17;;;4.00;94.60;;;;;;5054330;28;20652;-87
2022/01/11 02:43:46;;;;;;;92.30;32.97;;;3.90;94.90;;;;;;5053104;28;20181;-88
2022/01/11 02:46:12;;;;;;;75.03;29.63;;;3.80;95.00;;;;;;5054288;28;20237;-88
2022/01/11 02:48:37;;;;;;;98.57;34.23;;;3.70;95.30;;;;;;5053116;28;20180;-87
2022/01/11 02:51:04;;;;;;;105.50;33.53;;;3.70;95.40;;;;;;5054512;28;20176;-88
2022/01/11 02:53:30;;;;;;;105.93;35.53;;;3.70;95.40;;;;;;5053165;28;20183;-87
2022/01/11 02:55:57;;;;;;;110.97;35.27;;;3.70;95.50;;;;;;5055052;28;20223;-87
2022/01/11 02:58:22;;;;;;;100.90;36.93;;;3.70;95.60;;;;;;5052900;28;20226;-87
2022/01/11 03:00:48;;;;;;;100.67;37.07;;;3.70;95.60;;;;;;5054601;28;20176;-88
2022/01/11 03:03:23;;;;;;;104.40;36.67;;;3.70;95.70;;;;;;5053283;28;20246;-87
2022/01/11 03:05:56;;;;;;;95.83;34.73;;;3.70;95.70;;;;;;5052972;28;20168;-87
2022/01/11 03:08:23;;;;;;;91.97;34.23;;;3.70;95.70;;;;;;5052875;28;20249;-87
2022/01/11 03:10:51;;;;;;;84.90;32.07;;;3.60;95.80;;;;;;5052928;28;20227;-87
2022/01/11 03:13:17;;;;;;;99.50;33.87;;;3.60;95.80;;;;;;5054745;28;20200;-88
2022/01/11 03:15:44;;;;;;;84.97;34.80;;;3.60;95.80;;;;;;5053838;28;20239;-87
2022/01/11 03:18:10;;;;;;;83.43;33.27;;;3.60;95.80;;;;;;5053742;28;20783;-87
2022/01/11 03:20:38;;;;;;;94.13;35.00;;;3.60;95.80;;;;;;5053858;28;20176;-87
2022/01/11 03:23:04;;;;;;;95.93;37.20;;;3.60;95.80;;;;;;5052379;28;20181;-87
2022/01/11 03:25:30;;;;;;;94.37;34.23;;;3.60;95.80;;;;;;5052392;28;20203;-88
2022/01/11 03:27:56;;;;;;;83.87;32.33;;;3.50;95.70;;;;;;5053636;28;20664;-88
2022/01/11 03:30:22;;;;;;;75.40;30.40;;;3.50;95.70;;;;;;5053786;28;20180;-87
2022/01/11 03:32:48;;;;;;;95.43;32.93;;;3.40;95.70;;;;;;5053875;28;20702;-87
2022/01/11 03:35:14;;;;;;;89.33;35.87;;;3.40;95.70;;;;;;5053644;28;20208;-88
2022/01/11 03:37:42;;;;;;;91.53;36.53;;;3.40;95.70;;;;;;5053214;28;20742;-88
2022/01/11 03:40:15;;;;;;;96.13;35.00;;;3.40;95.80;;;;;;5052455;28;20185;-87
2022/01/11 03:42:40;;;;;;;87.80;33.47;;;3.40;95.80;;;;;;5052271;28;20188;-87
2022/01/11 03:45:07;;;;;;;85.87;34.63;;;3.40;95.80;;;;;;5052227;28;20195;-87
2022/01/11 03:47:34;;;;;;;68.23;26.13;;;3.40;95.90;;;;;;5052297;28;20660;-87
2022/01/11 03:49:59;;;;;;;71.70;29.50;;;3.30;95.80;;;;;;5051610;28;20188;-87
2022/01/11 03:52:25;;;;;;;75.67;28.80;;;3.30;95.70;;;;;;5053389;28;20191;-88
2022/01/11 03:57:21;;;;;;;75.97;29.97;;;3.30;95.80;;;;;;5053557;28;20216;-87
2022/01/11 03:59:46;;;;;;;89.60;36.03;;;3.30;95.80;;;;;;5052034;28;20176;-87
2022/01/11 04:02:12;;;;;;;87.50;33.93;;;3.30;95.70;;;;;;5051964;28;20618;-87
2022/01/11 04:04:38;;;;;;;77.00;32.30;;;3.30;95.80;;;;;;5053443;28;20178;-87
2022/01/11 04:07:04;;;;;;;92.53;34.80;;;3.30;95.80;;;;;;5053173;28;20195;-87
2022/01/11 04:09:30;;;;;;;78.03;35.33;;;3.30;95.80;;;;;;5051830;28;20179;-87
2022/01/11 04:11:56;;;;;;;73.67;31.20;;;3.20;95.80;;;;;;5051942;28;20183;-87
2022/01/11 04:14:25;;;;;;;72.43;30.47;;;3.20;95.70;;;;;;5053195;28;20238;-86
2022/01/11 04:16:53;;;;;;;83.40;33.27;;;3.10;95.70;;;;;;5053102;28;20203;-86
2022/01/11 04:19:20;;;;;;;83.83;33.43;;;3.10;95.70;;;;;;5051844;28;20179;-87
2022/01/11 04:21:46;;;;;;;84.40;33.30;;;3.00;95.80;;;;;;5053156;28;20208;-86
2022/01/11 04:24:13;;;;;;;93.33;33.70;;;3.00;95.80;;;;;;5053212;28;20198;-87
2022/01/11 04:26:39;;;;;;;83.47;33.13;;;3.00;95.80;;;;;;5051924;28;20203;-86
2022/01/11 04:29:05;;;;;;;91.97;33.97;;;3.00;95.80;;;;;;5051847;28;20277;-87
2022/01/11 04:31:31;;;;;;;95.97;33.83;;;3.00;95.80;;;;;;5053159;28;20180;-87
2022/01/11 04:33:57;;;;;;;98.47;35.27;;;3.10;95.90;;;;;;5053182;28;20176;-87
2022/01/11 04:36:23;;;;;;;97.20;34.30;;;3.10;95.90;;;;;;5052891;28;20215;-87
2022/01/11 04:38:49;;;;;;;102.67;34.23;;;3.10;95.90;;;;;;5051847;28;20647;-87
2022/01/11 04:41:15;;;;;;;83.70;29.70;;;3.10;95.90;;;;;;5053102;28;20172;-87
2022/01/11 04:43:40;;;;;;;101.20;34.87;;;3.10;95.90;;;;;;5053180;28;20183;-87
2022/01/11 04:46:06;;;;;;;96.47;36.57;;;3.10;95.90;;;;;;5052850;28;20200;-87
2022/01/11 04:48:32;;;;;;;68.60;26.83;;;3.10;95.90;;;;;;5052916;28;20206;-87
2022/01/11 04:51:03;;;;;;;108.07;39.07;;;3.10;95.90;;;;;;5051699;28;20189;-87
2022/01/11 04:53:30;;;;;;;100.70;37.40;;;3.10;95.90;;;;;;5051620;28;20612;-87
2022/01/11 04:55:56;;;;;;;97.00;34.93;;;3.20;95.90;;;;;;5051660;28;20182;-87
2022/01/11 04:58:22;;;;;;;120.60;43.33;;;3.20;95.90;;;;;;5052865;28;20267;-87
2022/01/11 05:00:48;;;;;;;127.70;43.17;;;3.20;95.90;;;;;;5052553;28;20607;-87
2022/01/11 05:03:14;;;;;;;123.30;42.50;;;3.20;95.80;;;;;;5055182;28;20199;-87
2022/01/11 05:05:40;;;;;;;126.40;44.93;;;3.20;95.80;;;;;;5056761;28;20179;-87
2022/01/11 05:08:05;;;;;;;132.37;42.10;;;3.30;95.80;;;;;;5054713;28;20564;-87
2022/01/11 05:10:32;;;;;;;120.60;42.37;;;3.30;95.80;;;;;;5055127;28;20176;-87
2022/01/11 05:12:58;;;;;;;136.93;43.17;;;3.30;95.80;;;;;;5054863;28;20179;-87
2022/01/11 05:15:28;;;;;;;124.83;42.73;;;3.30;95.80;;;;;;5055457;28;20559;-87
2022/01/11 05:17:54;;;;;;;126.97;40.97;;;3.30;95.80;;;;;;5056693;28;20207;-87
2022/01/11 05:20:20;;;;;;;127.73;44.23;;;3.30;95.80;;;;;;5055287;28;20180;-87
2022/01/11 05:22:47;;;;;;;128.80;39.43;;;3.30;95.80;;;;;;5056812;28;20176;-87
2022/01/11 05:25:14;;;;;;;133.17;42.13;;;3.30;95.80;;;;;;5055463;28;20180;-87
2022/01/11 05:27:41;;;;;;;137.83;42.83;;;3.30;95.80;;;;;;5056436;28;20732;-87
2022/01/11 05:30:08;;;;;;;131.20;42.60;;;3.30;95.80;;;;;;5055286;28;20210;-87
2022/01/11 05:32:35;;;;;;;160.73;47.70;;;3.30;95.80;;;;;;5056228;28;20178;-87
2022/01/11 05:35:03;;;;;;;135.43;45.00;;;3.30;95.80;;;;;;5054915;28;20233;-86
2022/01/11 05:37:29;;;;;;;147.07;49.80;;;3.30;95.80;;;;;;5056127;28;20790;-86
2022/01/11 05:39:55;;;;;;;131.50;47.10;;;3.30;95.80;;;;;;5056324;28;20169;-87
2022/01/11 05:42:22;;;;;;;152.90;50.37;;;3.30;95.70;;;;;;5056389;28;20176;-87
2022/01/11 05:44:47;;;;;;;139.03;48.90;;;3.30;95.70;;;;;;5056090;28;20168;-87
2022/01/11 05:47:13;;;;;;;149.57;53.37;;;3.30;95.70;;;;;;5056160;28;20196;-87
2022/01/11 05:49:39;;;;;;;121.67;45.60;;;3.30;95.70;;;;;;5056356;28;20211;-87
2022/01/11 05:52:05;;;;;;;146.37;46.53;;;3.30;95.60;;;;;;5056069;28;20194;-86
2022/01/11 05:54:30;;;;;;;127.47;46.37;;;3.30;95.60;;;;;;5056083;28;20211;-87
2022/01/11 05:56:56;;;;;;;142.60;50.20;;;3.30;95.50;;;;;;5054923;28;20212;-87
2022/01/11 05:59:21;;;;;;;150.90;53.67;;;3.30;95.50;;;;;;5054511;28;20224;-86
2022/01/11 06:01:47;;;;;;;122.23;47.83;;;3.30;95.50;;;;;;5054532;28;20195;-86
2022/01/11 06:04:13;;;;;;;146.80;48.53;;;3.30;95.50;;;;;;5056024;28;20165;-87
2022/01/11 06:06:38;;;;;;;131.87;46.17;;;3.30;95.50;;;;;;5054288;28;20203;-87
2022/01/11 06:09:04;;;;;;;121.93;42.60;;;3.30;95.50;;;;;;5055695;28;20266;-87
2022/01/11 06:11:30;;;;;;;140.37;48.80;;;3.30;95.50;;;;;;5053888;28;20188;-87
2022/01/11 06:13:56;;;;;;;130.53;46.07;;;3.20;95.50;;;;;;5054780;28;20190;-87
2022/01/11 06:16:22;;;;;;;130.20;44.60;;;3.30;95.50;;;;;;5055205;28;20585;-88
2022/01/11 06:18:48;;;;;;;125.73;43.70;;;3.20;95.50;;;;;;5054172;28;20663;-87
2022/01/11 06:21:14;;;;;;;127.13;45.80;;;3.20;95.50;;;;;;5055463;28;20199;-87
2022/01/11 06:23:40;;;;;;;117.70;40.27;;;3.20;95.40;;;;;;5054463;28;20257;-88
2022/01/11 06:26:06;;;;;;;95.63;35.37;;;3.10;95.40;;;;;;5054029;28;20194;-87
2022/01/11 06:28:31;;;;;;;99.43;39.10;;;3.20;95.40;;;;;;5054338;28;20727;-87
2022/01/11 06:30:57;;;;;;;106.80;42.20;;;3.20;95.30;;;;;;5055140;28;20544;-87
2022/01/11 06:33:23;;;;;;;119.03;44.33;;;3.20;95.30;;;;;;5055132;28;20226;-88
2022/01/11 06:35:48;;;;;;;123.33;47.10;;;3.20;95.30;;;;;;5055195;28;20254;-87
2022/01/11 06:38:14;;;;;;;136.13;49.40;;;3.20;95.30;;;;;;5054950;28;20238;-87
2022/01/11 06:40:41;;;;;;;123.93;48.00;;;3.30;95.30;;;;;;5055030;28;20257;-87
2022/01/11 06:43:07;;;;;;;132.07;45.20;;;3.20;95.30;;;;;;5054090;28;20199;-87
2022/01/11 06:45:33;;;;;;;127.97;46.73;;;3.30;95.30;;;;;;5053996;28;20187;-88
2022/01/11 06:48:00;;;;;;;134.23;47.77;;;3.20;95.30;;;;;;5054937;28;20196;-87
2022/01/11 06:50:26;;;;;;;121.37;45.63;;;3.30;95.30;;;;;;5054847;28;20172;-87
2022/01/11 06:52:52;;;;;;;67.37;28.40;;;3.30;95.30;;;;;;5053915;28;20187;-87
2022/01/11 06:55:19;;;;;;;119.13;41.10;;;3.20;95.30;;;;;;5054755;28;20176;-85
2022/01/11 06:57:45;;;;;;;93.30;35.70;;;3.20;95.20;;;;;;5054815;28;20211;-88
2022/01/11 07:00:11;;;;;;;54.17;23.97;;;3.20;95.20;;;;;;5053626;28;20179;-88
2022/01/11 07:02:37;;;;;;;81.67;33.03;;;3.10;95.20;;;;;;5053399;28;20232;-87
2022/01/11 07:05:04;;;;;;;102.17;41.03;;;3.10;95.20;;;;;;5053577;28;20176;-87
2022/01/11 07:07:30;;;;;;;95.30;36.03;;;3.10;95.20;;;;;;5054533;28;20202;-87
2022/01/11 07:09:56;;;;;;;112.20;42.30;;;3.00;95.20;;;;;;5054843;28;20182;-87
2022/01/11 07:12:21;;;;;;;112.90;41.73;;;3.10;95.20;;;;;;5053024;28;20229;-87
2022/01/11 07:14:47;;;;;;;97.93;38.50;;;3.10;95.30;;;;;;5053453;28;20187;-87
2022/01/11 07:17:15;;;;;;;100.73;38.53;;;3.10;95.30;;;;;;5054397;28;20214;-87
2022/01/11 07:19:41;;;;;;;83.23;34.80;;;3.00;95.30;;;;;;5053346;28;20175;-87
2022/01/11 07:22:07;;;;;;;84.63;35.20;;;3.00;95.30;;;;;;5054624;28;20226;-87
2022/01/11 07:24:32;;;;;;;107.53;40.03;;;3.00;95.30;;;;;;5052569;28;20179;-87
2022/01/11 07:26:58;;;;;;;124.27;42.93;;;3.00;95.30;;;;;;5052987;28;20299;-88
2022/01/11 07:29:24;;;;;;;87.10;35.70;;;3.00;95.40;;;;;;5053239;28;20215;-87
2022/01/11 07:31:50;;;;;;;108.10;42.03;;;3.00;95.40;;;;;;5054634;28;20690;-87
2022/01/11 07:34:16;;;;;;;101.47;39.77;;;3.00;95.40;;;;;;5052986;28;20236;-88
2022/01/11 07:36:42;;;;;;;81.10;32.20;;;3.10;95.50;;;;;;5054197;28;20218;-87
2022/01/11 07:39:09;;;;;;;114.20;38.70;;;3.00;95.50;;;;;;5054456;28;20183;-87
2022/01/11 07:41:35;;;;;;;108.03;39.60;;;3.00;95.40;;;;;;5054630;28;20255;-86
2022/01/11 07:44:01;;;;;;;102.00;34.07;;;3.10;95.50;;;;;;5053318;28;20178;-88
2022/01/11 07:46:27;;;;;;;110.43;36.50;;;3.10;95.50;;;;;;5053001;28;20199;-87
2022/01/11 07:48:52;;;;;;;104.17;37.07;;;3.00;95.50;;;;;;5052759;28;20278;-88
2022/01/11 07:51:18;;;;;;;112.90;40.13;;;3.10;95.50;;;;;;5052745;28;20207;-89
2022/01/11 07:53:44;;;;;;;90.10;32.30;;;3.20;95.50;;;;;;5054526;28;20180;-87
2022/01/11 07:56:10;;;;;;;98.03;35.63;;;3.10;95.40;;;;;;5053772;28;20207;-86
2022/01/11 07:58:35;;;;;;;106.80;37.00;;;3.10;95.30;;;;;;5053836;28;20655;-86
2022/01/11 08:01:01;;;;;;;104.20;40.57;;;3.10;95.30;;;;;;5054316;28;20184;-87
2022/01/11 08:03:27;;;;;;;116.70;41.57;;;3.10;95.40;;;;;;5054058;28;20245;-87
2022/01/11 08:05:53;;;;;;;105.43;38.93;;;3.10;95.40;;;;;;5053144;28;20184;-86
2022/01/11 08:08:19;;;;;;;108.03;38.00;;;3.20;95.40;;;;;;5053012;28;20287;-86
2022/01/11 08:10:44;;;;;;;102.93;37.23;;;3.20;95.40;;;;;;5053055;28;20179;-87
2022/01/11 08:13:11;;;;;;;95.87;34.27;;;3.20;95.30;;;;;;5054383;28;20164;-86
2022/01/11 08:15:37;;;;;;;107.80;34.67;;;3.10;95.30;;;;;;5052850;28;20644;-87
2022/01/11 08:18:04;;;;;;;110.93;37.87;;;3.10;95.30;;;;;;5052658;28;20700;-87
2022/01/11 08:20:30;;;;;;;87.57;31.33;;;3.10;95.30;;;;;;5054050;28;20168;-87
2022/01/11 08:22:56;;;;;;;80.33;30.07;;;3.10;95.30;;;;;;5054517;28;20171;-87
2022/01/11 08:25:23;;;;;;;97.67;35.53;;;3.10;95.30;;;;;;5052739;28;20524;-87
2022/01/11 08:27:49;;;;;;;100.40;39.13;;;3.00;95.30;;;;;;5053892;28;20196;-87
2022/01/11 08:30:15;;;;;;;103.37;37.80;;;3.10;95.30;;;;;;5053886;28;20176;-89
2022/01/11 08:32:40;;;;;;;95.17;36.83;;;3.10;95.30;;;;;;5052583;28;20670;-87
2022/01/11 08:35:07;;;;;;;94.47;37.40;;;3.10;95.30;;;;;;5055405;28;20175;-87
2022/01/11 08:37:33;;;;;;;80.87;32.73;;;3.10;95.40;;;;;;5057807;28;20215;-88
2022/01/11 08:39:58;;;;;;;104.73;40.03;;;3.20;95.40;;;;;;5056504;28;20595;-87
2022/01/11 08:42:27;;;;;;;97.23;37.53;;;3.10;95.30;;;;;;5057880;28;20172;-89
2022/01/11 08:44:53;;;;;;;107.03;40.77;;;3.10;95.30;;;;;;5056802;28;20172;-89
2022/01/11 08:47:20;;;;;;;93.77;36.73;;;3.20;95.40;;;;;;5056646;28;20210;-89
2022/01/11 08:49:47;;;;;;;101.60;38.93;;;3.20;95.40;;;;;;5055545;28;20317;-89
2022/01/11 08:52:13;;;;;;;110.60;40.13;;;3.20;95.40;;;;;;5055478;28;20652;-88
2022/01/11 08:54:39;;;;;;;95.97;35.90;;;3.20;95.30;;;;;;5056499;28;20233;-89
2022/01/11 08:57:06;;;;;;;78.90;30.50;;;3.10;95.30;;;;;;5055231;28;20297;-89
2022/01/11 08:59:32;;;;;;;94.87;34.43;;;3.10;95.30;;;;;;5055404;28;20183;-89
2022/01/11 09:01:59;;;;;;;92.03;37.87;;;3.10;95.20;;;;;;5056543;28;20180;-88
2022/01/11 09:04:27;;;;;;;80.20;32.17;;;3.10;95.20;;;;;;5056425;28;20180;-88
2022/01/11 09:06:57;;;;;;;92.60;38.50;;;3.20;95.20;;;;;;5055311;28;20694;-88
2022/01/11 09:09:24;;;;;;;78.07;33.20;;;3.20;95.20;;;;;;5056707;28;20153;-88
2022/01/11 09:11:51;;;;;;;70.90;29.33;;;3.20;95.10;;;;;;5055098;28;20188;-88
2022/01/11 09:14:17;;;;;;;90.47;37.40;;;3.20;95.10;;;;;;5056593;28;20176;-87
2022/01/11 09:16:43;;;;;;;80.10;33.13;;;3.20;95.00;;;;;;5056243;28;20227;-89
2022/01/11 09:19:09;;;;;;;82.60;36.53;;;3.20;95.00;;;;;;5055079;28;20176;-88
2022/01/11 09:21:34;;;;;;;76.70;35.13;;;3.20;95.00;;;;;;5056321;28;20651;-88
2022/01/11 09:24:01;;;;;;;83.53;35.67;;;3.30;94.90;;;;;;5055057;28;20543;-88
2022/01/11 09:26:27;;;;;;;70.60;28.63;;;3.30;94.80;;;;;;5056444;28;20184;-88
2022/01/11 09:28:52;;;;;;;65.67;28.33;;;3.30;94.80;;;;;;5055215;28;20240;-87
2022/01/11 09:31:18;;;;;;;65.87;30.07;;;3.20;94.70;;;;;;5056108;28;20182;-88
2022/01/11 09:33:43;;;;;;;59.43;25.17;;;3.30;94.70;;;;;;5056249;28;20659;-88
2022/01/11 09:36:09;;;;;;;59.43;22.67;;;3.20;94.60;;;;;;5054924;28;20733;-89
2022/01/11 09:38:35;;;;;;;54.30;26.80;;;3.10;94.50;;;;;;5056202;28;20172;-88
2022/01/11 09:41:01;;;;;;;44.53;22.43;;;3.10;94.40;;;;;;5054846;28;20318;-88
2022/01/11 09:43:28;;;;;;;61.40;30.57;;;3.20;94.40;;;;;;5056046;28;20179;-88
2022/01/11 09:45:55;;;;;;;59.83;25.50;;;3.20;94.30;;;;;;5056189;28;20166;-88
2022/01/11 09:48:24;;;;;;;54.30;24.80;;;3.20;94.20;;;;;;5055297;28;20199;-88
2022/01/11 09:50:51;;;;;;;43.83;18.33;;;3.30;94.00;;;;;;5054840;28;20185;-87
2022/01/11 09:53:17;;;;;;;59.60;27.47;;;3.20;93.70;;;;;;5055672;28;20168;-87
2022/01/11 09:55:44;;;;;;;69.40;34.03;;;3.20;93.70;;;;;;5054437;28;20180;-88
2022/01/11 09:58:10;;;;;;;57.27;27.83;;;3.30;93.80;;;;;;5055423;28;20210;-88
2022/01/11 10:00:37;;;;;;;41.50;22.33;;;3.30;93.70;;;;;;5055716;28;20171;-89
2022/01/11 10:03:04;;;;;;;49.00;23.70;;;3.30;93.40;;;;;;5055520;28;20187;-89
2022/01/11 10:05:32;;;;;;;45.13;19.73;;;3.30;93.30;;;;;;5055621;28;20168;-88
2022/01/11 10:07:59;;;;;;;51.10;23.40;;;3.40;93.20;;;;;;5055440;28;20203;-87
2022/01/11 10:10:26;;;;;;;43.20;21.60;;;3.40;93.10;;;;;;5054555;28;20186;-88
2022/01/11 10:13:04;;;;;;;46.77;24.70;;;3.40;92.80;;;;;;5055197;28;20180;-88
2022/01/11 10:15:35;;;;;;;58.30;27.00;;;3.40;92.80;;;;;;5054228;28;20243;-88
2022/01/11 10:18:03;;;;;;;39.30;18.07;;;3.50;92.50;;;;;;5054502;28;20211;-88
2022/01/11 10:20:29;;;;;;;48.67;23.77;;;3.50;92.40;;;;;;5054607;28;20222;-87
2022/01/11 10:22:59;;;;;;;32.80;16.37;;;3.50;92.40;;;;;;5053951;28;20229;-87
2022/01/11 10:25:26;;;;;;;45.53;21.13;;;3.50;91.90;;;;;;5054396;28;20529;-89
2022/01/11 10:27:58;;;;;;;42.10;19.37;;;3.60;91.90;;;;;;5053938;28;20253;-88
2022/01/11 10:30:26;;;;;;;46.73;25.43;;;3.60;91.80;;;;;;5055075;28;20194;-87
2022/01/11 10:32:54;;;;;;;52.20;25.20;;;3.60;91.90;;;;;;5053898;28;20172;-88
2022/01/11 10:35:23;;;;;;;48.43;24.57;;;3.70;91.80;;;;;;5054762;28;20164;-89
2022/01/11 10:37:55;;;;;;;50.47;28.23;;;3.70;91.90;;;;;;5054932;28;20203;-86
2022/01/11 10:40:32;;;;;;;61.23;29.57;;;3.70;92.00;;;;;;5054891;28;20648;-89
2022/01/11 10:43:12;;;;;;;51.17;26.13;;;3.80;92.20;;;;;;5053681;28;20164;-89
2022/01/11 10:45:41;;;;;;;45.23;22.50;;;4.00;92.20;;;;;;5053498;28;20255;-90
2022/01/11 10:48:15;;;;;;;41.83;22.57;;;4.00;91.10;;;;;;5053654;28;20196;-89
2022/01/11 10:50:43;;;;;;;39.27;21.07;;;4.00;91.00;;;;;;5053953;28;20168;-88
2022/01/11 10:53:28;;;;;;;44.17;21.03;;;4.00;90.80;;;;;;5054099;28;20199;-89
2022/01/11 10:55:59;;;;;;;32.57;17.57;;;4.10;90.80;;;;;;5055724;28;20152;-89
2022/01/11 10:58:28;;;;;;;37.07;17.47;;;3.90;90.20;;;;;;5054180;28;20634;-89
2022/01/11 11:00:55;;;;;;;42.10;20.47;;;3.90;90.40;;;;;;5053893;28;20198;-89
2022/01/11 11:03:23;;;;;;;34.93;16.50;;;4.00;90.50;;;;;;5053827;28;20268;-88
2022/01/11 11:05:57;;;;;;;27.03;15.70;;;4.10;90.20;;;;;;5055213;28;20654;-86
2022/01/11 11:08:31;;;;;;;37.17;19.43;;;4.00;90.00;;;;;;5053643;28;20196;-87
2022/01/11 11:10:56;;;;;;;36.33;18.43;;;3.90;90.10;;;;;;5053629;28;20176;-88
2022/01/11 11:13:39;;;;;;;36.67;16.67;;;4.10;90.60;;;;;;5053984;28;20223;-88
2022/01/11 11:16:11;;;;;;;26.10;14.90;;;4.20;89.90;;;;;;5054123;28;20160;-87
2022/01/11 11:18:44;;;;;;;31.10;14.30;;;4.30;89.70;;;;;;5054091;28;20175;-87
2022/01/11 11:21:30;;;;;;;24.53;12.73;;;4.40;89.60;;;;;;5055421;28;20186;-88
2022/01/11 11:24:02;;;;;;;33.90;16.00;;;4.30;89.00;;;;;;5053045;28;20556;-88
2022/01/11 11:26:33;;;;;;;35.03;15.10;;;4.50;89.50;;;;;;5052693;28;20246;-87
2022/01/11 11:28:59;;;;;;;32.03;13.53;;;4.50;89.50;;;;;;5053771;28;20156;-88
2022/01/11 11:31:25;;;;;;;33.27;15.73;;;4.50;89.10;;;;;;5053767;28;20544;-87
2022/01/11 11:33:51;;;;;;;26.70;12.80;;;4.60;88.90;;;;;;5052392;28;20173;-88
2022/01/11 11:36:18;;;;;;;35.03;16.37;;;4.70;89.10;;;;;;5052281;28;20287;-88
2022/01/11 11:39:03;;;;;;;38.17;15.70;;;4.60;88.40;;;;;;5053502;28;20165;-88
2022/01/11 11:41:30;;;;;;;31.80;14.20;;;4.70;88.50;;;;;;5052579;28;20160;-88
2022/01/11 11:44:09;;;;;;;36.57;15.27;;;4.80;88.10;;;;;;5052991;28;20712;-88
2022/01/11 11:46:55;;;;;;;33.80;13.77;;;4.80;88.30;;;;;;5053592;28;20219;-87
2022/01/11 11:49:47;;;;;;;37.50;14.97;;;5.00;88.20;;;;;;5052807;28;20180;-87
2022/01/11 11:52:44;;;;;;;35.47;13.17;;;4.90;87.90;;;;;;5052475;28;20597;-88
2022/01/11 11:55:19;;;;;;;32.03;13.93;;;5.00;88.10;;;;;;5052191;28;20259;-87
2022/01/11 11:57:46;;;;;;;25.90;15.23;;;5.00;88.10;;;;;;5053443;28;20208;-88
2022/01/11 12:00:20;;;;;;;28.93;14.67;;;5.10;88.10;;;;;;5052046;28;20208;-88
2022/01/11 12:03:07;;;;;;;35.17;16.17;;;5.20;87.50;;;;;;5052136;28;20189;-88
2022/01/11 12:05:44;;;;;;;36.67;15.53;;;5.30;87.80;;;;;;5054118;28;20165;-88
2022/01/11 12:08:32;;;;;;;28.40;13.57;;;5.30;87.30;;;;;;5054004;28;20237;-87
2022/01/11 12:11:04;;;;;;;32.97;15.60;;;5.30;87.20;;;;;;5056094;28;20166;-89
2022/01/11 12:13:53;;;;;;;29.70;14.27;;;5.30;87.00;;;;;;5057480;28;20660;-89
2022/01/11 12:16:25;;;;;;;23.73;9.87;;;5.40;86.90;;;;;;5056192;28;20190;-88
2022/01/11 12:18:59;;;;;;;30.70;14.70;;;5.30;86.30;;;;;;5057054;28;20647;-91
2022/01/11 12:21:29;;;;;;;35.73;15.53;;;5.40;86.50;;;;;;5056992;28;20174;-91
2022/01/11 12:24:00;;;;;;;29.67;15.30;;;5.50;86.70;;;;;;5057399;28;20179;-90
2022/01/11 12:26:27;;;;;;;26.97;14.07;;;5.20;86.50;;;;;;5056101;28;20201;-91
2022/01/11 12:29:05;;;;;;;23.97;13.70;;;5.10;87.00;;;;;;5055726;28;20182;-89
2022/01/11 12:31:53;;;;;;;23.70;12.87;;;5.00;87.10;;;;;;5055654;28;20182;-89
2022/01/11 12:34:39;;;;;;;21.03;11.00;;;4.90;87.40;;;;;;5056199;28;20168;-89
2022/01/11 12:37:05;;;;;;;28.17;15.27;;;5.00;87.30;;;;;;5056523;28;20235;-89
2022/01/11 12:39:32;;;;;;;24.57;13.80;;;5.20;87.30;;;;;;5055598;28;20177;-89